Time;durP1;ratioP1;P1;durP2;ratioP2;P2;SDS_P1;SDS_P2;PMS_P1;PMS_P2;Temp;Humidity;BMP_temperature;BMP_pressure;BME280_temperature;BME280_humidity;BME280_pressure;Samples;Min_cycle;Max_cycle;Signal;HPM_P1;HPM_P2
2022/03/15 00:00:26;;;;;;;57.88;24.30;;;1.50;99.90;;;;;;5070629;28;20127;-42
2022/03/15 00:02:53;;;;;;;63.33;25.88;;;1.60;99.90;;;;;;5069501;28;20048;-41
2022/03/15 00:05:20;;;;;;;55.90;24.23;;;1.60;99.90;;;;;;5070516;28;20056;-41
2022/03/15 00:07:47;;;;;;;66.38;24.85;;;1.50;99.90;;;;;;5070017;28;20471;-40
2022/03/15 00:10:15;;;;;;;62.08;23.67;;;1.60;99.90;;;;;;5070401;28;20111;-40
2022/03/15 00:12:41;;;;;;;63.88;25.77;;;1.60;99.90;;;;;;5070107;28;20041;-40
2022/03/15 00:15:08;;;;;;;56.25;26.52;;;1.60;99.90;;;;;;5070027;28;20504;-40
2022/03/15 00:17:38;;;;;;;63.33;26.38;;;1.70;99.90;;;;;;5070245;28;20431;-40
2022/03/15 00:20:06;;;;;;;85.80;30.85;;;1.70;99.90;;;;;;5070224;28;20064;-40
2022/03/15 00:22:34;;;;;;;76.35;29.15;;;1.70;99.90;;;;;;5070246;28;20158;-40
2022/03/15 00:25:05;;;;;;;69.38;28.23;;;1.70;99.90;;;;;;5070348;28;20099;-41
2022/03/15 00:27:32;;;;;;;72.30;26.85;;;1.80;99.90;;;;;;5070273;28;20044;-41
2022/03/15 00:29:58;;;;;;;63.28;27.45;;;1.80;99.90;;;;;;5070435;28;20045;-40
2022/03/15 00:32:24;;;;;;;75.20;29.98;;;1.80;99.90;;;;;;5070316;28;20367;-40
2022/03/15 00:34:49;;;;;;;72.15;29.23;;;1.80;99.90;;;;;;5069820;28;20072;-40
2022/03/15 00:37:15;;;;;;;66.43;30.67;;;1.90;99.90;;;;;;5070030;28;20123;-40
2022/03/15 00:39:42;;;;;;;92.57;35.05;;;2.00;99.90;;;;;;5051581;28;20504;-41
2022/03/15 00:42:08;;;;;;;67.53;30.35;;;2.10;99.90;;;;;;5070165;28;20111;-41
2022/03/15 00:44:34;;;;;;;81.57;33.42;;;2.00;99.90;;;;;;5069800;28;20120;-40
2022/03/15 00:47:01;;;;;;;70.80;31.67;;;2.10;99.90;;;;;;5069326;28;20056;-40
2022/03/15 00:49:27;;;;;;;79.10;33.15;;;2.20;99.90;;;;;;5069384;28;20123;-41
2022/03/15 00:51:54;;;;;;;75.13;32.83;;;2.20;99.90;;;;;;5069701;28;20041;-40
2022/03/15 00:54:23;;;;;;;68.78;30.60;;;2.20;99.90;;;;;;5069561;28;20090;-40
2022/03/15 00:56:50;;;;;;;75.80;30.98;;;2.20;99.90;;;;;;5069215;28;20500;-41
2022/03/15 00:59:15;;;;;;;80.53;34.58;;;2.10;99.90;;;;;;5069696;28;20049;-42
2022/03/15 01:01:41;;;;;;;70.20;31.23;;;2.30;99.90;;;;;;5069525;28;20499;-40
2022/03/15 01:04:07;;;;;;;76.00;32.05;;;2.10;99.90;;;;;;5069222;28;20044;-41
2022/03/15 01:06:34;;;;;;;78.90;33.13;;;2.30;99.90;;;;;;5069215;28;20044;-41
2022/03/15 01:09:01;;;;;;;91.47;36.00;;;2.20;99.90;;;;;;5069108;28;20097;-41
2022/03/15 01:11:27;;;;;;;75.75;31.50;;;2.10;99.90;;;;;;5069179;28;20063;-41
2022/03/15 01:13:53;;;;;;;72.65;32.45;;;2.10;99.90;;;;;;5068718;28;20036;-40
2022/03/15 01:16:18;;;;;;;74.05;33.38;;;2.10;99.90;;;;;;5069387;28;20387;-41
2022/03/15 01:18:44;;;;;;;79.30;34.17;;;2.20;99.90;;;;;;5050943;28;20044;-41
2022/03/15 01:21:13;;;;;;;85.40;34.10;;;2.20;99.90;;;;;;5069042;28;20411;-40
2022/03/15 01:23:38;;;;;;;77.90;33.97;;;2.20;99.90;;;;;;5069272;28;20449;-40
2022/03/15 01:26:04;;;;;;;74.50;33.83;;;2.20;99.90;;;;;;5068903;28;20045;-40
2022/03/15 01:28:30;;;;;;;71.38;34.22;;;2.20;99.90;;;;;;5069290;28;20052;-40
2022/03/15 01:30:55;;;;;;;89.43;35.85;;;2.20;99.90;;;;;;5068671;28;20044;-40
2022/03/15 01:33:21;;;;;;;76.13;34.60;;;2.20;99.90;;;;;;5068547;28;20065;-40
2022/03/15 01:35:47;;;;;;;85.57;34.60;;;2.20;99.90;;;;;;5069258;28;20068;-40
2022/03/15 01:38:12;;;;;;;82.70;34.47;;;2.20;99.90;;;;;;5069263;28;20048;-41
2022/03/15 01:40:38;;;;;;;70.47;34.05;;;2.00;99.90;;;;;;5068767;28;20529;-40
2022/03/15 01:43:04;;;;;;;70.78;33.15;;;2.10;99.90;;;;;;5068638;28;20284;-40
2022/03/15 01:45:34;;;;;;;76.38;31.83;;;2.10;99.90;;;;;;5068898;28;20074;-40
2022/03/15 01:48:01;;;;;;;80.70;33.72;;;2.10;99.90;;;;;;5050535;28;20063;-40
2022/03/15 01:50:28;;;;;;;84.72;36.13;;;2.10;99.90;;;;;;5069376;28;20045;-40
2022/03/15 01:52:54;;;;;;;83.13;35.40;;;1.90;99.90;;;;;;5068435;28;20048;-42
2022/03/15 01:55:19;;;;;;;76.95;34.20;;;1.90;99.90;;;;;;5068963;28;20053;-41
2022/03/15 01:57:45;;;;;;;94.18;36.10;;;1.90;99.90;;;;;;5068732;28;20501;-40
2022/03/15 02:00:11;;;;;;;82.00;33.05;;;2.00;99.90;;;;;;5068375;28;20040;-40
2022/03/15 02:02:38;;;;;;;106.15;36.03;;;1.90;99.90;;;;;;5071691;28;20128;-42
2022/03/15 02:05:05;;;;;;;74.45;34.17;;;1.70;99.90;;;;;;5072455;28;20173;-41
2022/03/15 02:07:30;;;;;;;110.53;36.75;;;1.60;99.90;;;;;;5072806;28;20048;-40
2022/03/15 02:09:56;;;;;;;92.00;33.53;;;1.60;99.90;;;;;;5053979;28;20036;-41
2022/03/15 02:12:22;;;;;;;123.45;36.78;;;1.50;99.90;;;;;;5072681;28;20040;-40
2022/03/15 02:14:48;;;;;;;95.80;34.67;;;1.40;99.90;;;;;;5072464;28;20048;-39
2022/03/15 02:17:13;;;;;;;94.68;35.47;;;1.40;99.90;;;;;;5072117;28;20044;-40
2022/03/15 02:19:39;;;;;;;69.80;29.92;;;1.30;99.90;;;;;;5054090;28;20044;-41
2022/03/15 02:22:05;;;;;;;84.20;33.15;;;1.30;99.90;;;;;;5072237;28;20041;-40
2022/03/15 02:24:31;;;;;;;91.30;33.78;;;1.30;99.90;;;;;;5054433;28;20171;-40
2022/03/15 02:26:57;;;;;;;107.05;34.92;;;1.30;99.90;;;;;;5072177;28;20501;-41
2022/03/15 02:29:23;;;;;;;111.60;34.92;;;1.30;99.90;;;;;;5072360;28;20032;-40
2022/03/15 02:31:49;;;;;;;100.70;34.03;;;1.20;99.90;;;;;;5072202;28;20646;-40
2022/03/15 02:34:17;;;;;;;93.35;34.50;;;1.30;99.90;;;;;;5072082;28;20397;-40
2022/03/15 02:36:44;;;;;;;107.65;35.33;;;1.20;99.90;;;;;;5072442;28;20082;-42
2022/03/15 02:39:09;;;;;;;80.55;33.50;;;1.30;99.90;;;;;;5071654;28;20119;-40
2022/03/15 02:41:35;;;;;;;96.75;37.00;;;1.30;99.90;;;;;;5072219;28;20514;-40
2022/03/15 02:44:01;;;;;;;75.93;30.73;;;1.30;99.90;;;;;;5071793;28;20036;-40
2022/03/15 02:46:31;;;;;;;100.82;33.15;;;2.50;99.90;;;;;;5072092;28;20051;-40
2022/03/15 02:48:57;;;;;;;54.00;26.45;;;1.20;99.90;;;;;;5071240;28;20091;-42
2022/03/15 02:51:23;;;;;;;71.10;29.80;;;2.90;99.90;;;;;;5072047;28;20044;-41
2022/03/15 02:53:53;;;;;;;89.95;31.08;;;1.30;99.90;;;;;;5071775;28;20040;-42
2022/03/15 02:56:19;;;;;;;71.35;28.55;;;1.30;99.90;;;;;;5071671;28;20048;-40
2022/03/15 02:58:45;;;;;;;69.95;30.88;;;1.30;99.90;;;;;;5071485;28;20044;-40
2022/03/15 03:01:11;;;;;;;72.00;31.75;;;1.40;99.90;;;;;;5071509;28;20048;-40
2022/03/15 03:03:37;;;;;;;96.97;33.35;;;1.40;99.90;;;;;;5071870;28;20059;-41
2022/03/15 03:06:04;;;;;;;78.35;32.25;;;1.40;99.90;;;;;;5071206;28;20080;-40
2022/03/15 03:08:30;;;;;;;69.63;31.25;;;1.40;99.90;;;;;;5071441;28;20040;-42
2022/03/15 03:10:58;;;;;;;82.07;33.00;;;1.30;99.90;;;;;;5071557;28;20079;-41
2022/03/15 03:13:27;;;;;;;102.05;33.70;;;1.30;99.90;;;;;;5071339;28;20494;-41
2022/03/15 03:15:57;;;;;;;110.80;36.85;;;1.20;99.90;;;;;;5071407;28;20048;-40
2022/03/15 03:18:31;;;;;;;120.22;36.17;;;1.20;99.90;;;;;;5071004;28;20051;-41
2022/03/15 03:20:57;;;;;;;85.15;31.60;;;1.10;99.90;;;;;;5071389;28;20398;-41
2022/03/15 03:23:23;;;;;;;89.13;33.33;;;1.10;99.90;;;;;;5071270;28;20045;-40
2022/03/15 03:25:49;;;;;;;92.82;31.95;;;1.10;99.90;;;;;;5071322;28;20042;-41
2022/03/15 03:28:15;;;;;;;83.25;31.65;;;2.10;99.90;;;;;;5071226;28;20529;-40
2022/03/15 03:30:47;;;;;;;101.47;37.72;;;1.00;99.90;;;;;;5071418;28;20556;-41
2022/03/15 03:33:19;;;;;;;87.90;33.00;;;1.00;99.90;;;;;;5071430;28;20059;-40
2022/03/15 03:35:45;;;;;;;113.38;36.15;;;1.30;99.90;;;;;;5071374;28;20037;-40
2022/03/15 03:38:11;;;;;;;74.35;29.27;;;0.90;99.90;;;;;;5070820;28;20485;-40
2022/03/15 03:40:38;;;;;;;73.68;28.10;;;0.80;99.90;;;;;;5071114;28;20055;-40
2022/03/15 03:43:04;;;;;;;80.03;30.70;;;0.80;99.90;;;;;;5070932;28;20153;-41
2022/03/15 03:45:30;;;;;;;71.97;31.55;;;0.80;99.90;;;;;;5070827;28;20045;-40
2022/03/15 03:47:56;;;;;;;71.82;28.90;;;0.90;99.90;;;;;;5070843;28;20048;-41
2022/03/15 03:50:22;;;;;;;78.15;33.38;;;0.90;99.90;;;;;;5070461;28;20043;-40
2022/03/15 03:52:47;;;;;;;84.60;34.28;;;0.90;99.90;;;;;;5070771;28;20093;-40
2022/03/15 03:55:13;;;;;;;92.38;33.38;;;1.00;99.90;;;;;;5070557;28;20170;-41
2022/03/15 03:57:39;;;;;;;91.50;36.35;;;1.10;99.90;;;;;;5071000;28;20097;-41
2022/03/15 04:00:06;;;;;;;84.85;32.90;;;1.10;99.90;;;;;;5070783;28;20048;-40
2022/03/15 04:02:32;;;;;;;102.38;33.53;;;1.10;99.90;;;;;;5070846;28;20044;-40
2022/03/15 04:04:58;;;;;;;93.00;33.55;;;1.10;99.90;;;;;;5070500;28;20081;-41
2022/03/15 04:07:24;;;;;;;71.80;29.33;;;1.10;99.90;;;;;;5070424;28;20108;-40
2022/03/15 04:09:50;;;;;;;82.70;31.27;;;1.10;99.90;;;;;;5070441;28;20178;-40
2022/03/15 04:12:19;;;;;;;89.35;32.05;;;1.10;99.90;;;;;;5070410;28;20041;-40
2022/03/15 04:14:46;;;;;;;109.25;34.35;;;1.20;99.90;;;;;;5070430;28;20052;-40
2022/03/15 04:17:12;;;;;;;90.65;32.33;;;1.20;99.90;;;;;;5070218;28;20045;-40
2022/03/15 04:19:38;;;;;;;80.05;31.00;;;1.20;99.90;;;;;;5070050;28;20044;-40
2022/03/15 04:22:04;;;;;;;85.75;35.20;;;1.30;99.90;;;;;;5052133;28;20069;-41
2022/03/15 04:24:31;;;;;;;88.43;34.30;;;1.40;99.90;;;;;;5069737;28;20339;-40
2022/03/15 04:26:58;;;;;;;80.25;30.65;;;1.40;99.90;;;;;;5070417;28;20036;-40
2022/03/15 04:29:24;;;;;;;77.28;30.83;;;1.50;99.90;;;;;;5069607;28;20037;-40
2022/03/15 04:31:50;;;;;;;82.65;31.52;;;1.50;99.90;;;;;;5070210;28;20044;-40
2022/03/15 04:34:17;;;;;;;94.80;32.17;;;1.50;99.90;;;;;;5051579;28;20139;-40
2022/03/15 04:36:44;;;;;;;72.60;30.48;;;1.30;99.90;;;;;;5069877;28;20052;-40
2022/03/15 04:39:11;;;;;;;72.07;28.35;;;1.50;99.90;;;;;;5069626;28;20045;-40
2022/03/15 04:41:37;;;;;;;73.18;30.10;;;1.50;99.90;;;;;;5069721;28;20437;-40
2022/03/15 04:44:03;;;;;;;67.20;28.30;;;1.50;99.90;;;;;;5069935;28;20055;-40
2022/03/15 04:46:29;;;;;;;77.75;29.98;;;1.50;99.90;;;;;;5069436;28;20051;-41
2022/03/15 04:48:56;;;;;;;61.33;28.23;;;1.50;99.90;;;;;;5069636;28;20048;-40
2022/03/15 04:51:23;;;;;;;63.53;28.25;;;1.60;99.90;;;;;;5069684;28;20048;-41
2022/03/15 04:53:49;;;;;;;65.00;27.17;;;1.40;99.90;;;;;;5069951;28;20058;-40
2022/03/15 04:56:15;;;;;;;59.72;29.33;;;1.60;99.90;;;;;;5069308;28;20171;-40
2022/03/15 04:58:41;;;;;;;49.58;25.17;;;1.60;99.90;;;;;;5069975;28;20126;-41
2022/03/15 05:01:07;;;;;;;61.22;27.38;;;1.60;99.90;;;;;;5051703;28;20056;-40
2022/03/15 05:03:35;;;;;;;67.57;29.50;;;2.50;99.90;;;;;;5069177;28;20530;-40
2022/03/15 05:06:01;;;;;;;61.15;30.15;;;1.60;99.90;;;;;;5051769;28;20051;-40
2022/03/15 05:08:27;;;;;;;59.17;28.58;;;1.50;99.90;;;;;;5069480;28;20043;-40
2022/03/15 05:11:08;;;;;;;80.13;32.00;;;1.70;99.90;;;;;;5069626;28;20040;-40
2022/03/15 05:13:44;;;;;;;65.25;28.65;;;1.70;99.90;;;;;;5069365;28;20048;-40
2022/03/15 05:16:13;;;;;;;71.13;31.75;;;1.80;99.90;;;;;;5069459;28;20050;-40
2022/03/15 05:18:40;;;;;;;88.78;36.83;;;1.90;99.90;;;;;;5064660;28;20752;-38
2022/03/15 05:21:07;;;;;;;100.13;39.47;;;2.00;99.90;;;;;;5065483;28;20060;-40
2022/03/15 05:23:34;;;;;;;108.38;42.10;;;2.10;99.90;;;;;;5068220;28;20045;-41
2022/03/15 05:26:00;;;;;;;103.78;41.75;;;2.20;99.90;;;;;;5068846;28;20045;-41
2022/03/15 05:28:26;;;;;;;111.55;44.85;;;2.30;99.90;;;;;;5050644;28;20135;-40
2022/03/15 05:30:51;;;;;;;114.32;45.00;;;2.40;99.90;;;;;;5068947;28;20123;-40
2022/03/15 05:33:17;;;;;;;131.07;48.13;;;2.40;99.90;;;;;;5068677;28;20039;-40
2022/03/15 05:35:43;;;;;;;116.80;47.42;;;2.60;99.90;;;;;;5069129;28;20048;-39
2022/03/15 05:38:09;;;;;;;111.78;46.38;;;2.70;99.90;;;;;;5073009;28;20691;-40
2022/03/15 05:40:35;;;;;;;135.10;50.83;;;2.70;99.90;;;;;;5073087;28;20436;-40
2022/03/15 05:43:01;;;;;;;119.47;48.13;;;2.90;99.90;;;;;;5072776;28;20044;-39
2022/03/15 05:45:27;;;;;;;147.18;53.08;;;2.60;99.90;;;;;;5073612;28;20123;-39
2022/03/15 05:47:56;;;;;;;138.63;53.33;;;2.90;99.90;;;;;;5073185;28;20670;-39
2022/03/15 05:50:22;;;;;;;137.68;53.70;;;2.90;99.90;;;;;;5072448;28;20513;-40
2022/03/15 05:52:48;;;;;;;178.95;57.20;;;3.00;99.90;;;;;;5073800;28;20500;-43
2022/03/15 05:55:14;;;;;;;168.30;55.83;;;3.00;99.90;;;;;;5072426;28;20091;-41
2022/03/15 05:57:39;;;;;;;158.55;56.42;;;3.00;99.90;;;;;;5072949;28;20135;-41
2022/03/15 06:00:07;;;;;;;193.52;58.22;;;3.10;99.90;;;;;;5072899;28;20051;-38
2022/03/15 06:02:32;;;;;;;155.73;55.03;;;3.10;99.90;;;;;;5072991;28;20048;-37
2022/03/15 06:04:59;;;;;;;148.60;57.20;;;3.20;99.90;;;;;;5072778;28;20044;-40
2022/03/15 06:07:27;;;;;;;144.18;54.40;;;3.20;99.90;;;;;;5072296;28;20524;-39
2022/03/15 06:09:53;;;;;;;152.85;56.13;;;3.20;99.90;;;;;;5072613;28;20055;-39
2022/03/15 06:12:20;;;;;;;171.50;59.30;;;3.30;99.90;;;;;;5073422;28;20129;-38
2022/03/15 06:14:47;;;;;;;203.73;61.25;;;3.40;99.90;;;;;;5072693;28;20044;-44
2022/03/15 06:17:12;;;;;;;186.05;59.20;;;3.10;99.90;;;;;;5072611;28;20129;-37
2022/03/15 06:19:38;;;;;;;172.82;60.33;;;3.20;99.90;;;;;;5072153;28;20072;-38
2022/03/15 06:22:04;;;;;;;178.77;59.58;;;3.50;99.90;;;;;;5072306;28;20036;-38
2022/03/15 06:24:30;;;;;;;177.32;59.70;;;3.50;99.90;;;;;;5071872;28;20047;-38
2022/03/15 06:26:57;;;;;;;175.48;62.08;;;3.80;99.90;;;;;;5054062;28;20055;-38
2022/03/15 06:29:23;;;;;;;171.43;59.72;;;3.50;99.90;;;;;;5072231;28;20040;-38
2022/03/15 06:31:48;;;;;;;167.00;59.92;;;3.60;99.90;;;;;;5072449;28;20063;-37
2022/03/15 06:34:14;;;;;;;167.43;57.92;;;3.70;99.90;;;;;;5072284;28;20401;-38
2022/03/15 06:36:41;;;;;;;177.50;60.28;;;3.80;99.90;;;;;;5071718;28;20044;-38
2022/03/15 06:39:07;;;;;;;155.30;59.33;;;3.80;99.90;;;;;;5072238;28;20118;-38
2022/03/15 06:41:37;;;;;;;165.13;58.47;;;3.80;99.90;;;;;;5071974;28;20072;-38
2022/03/15 06:44:03;;;;;;;144.60;57.20;;;3.90;99.90;;;;;;5072167;28;20041;-38
2022/03/15 06:46:30;;;;;;;157.90;57.25;;;4.00;99.90;;;;;;5053570;28;20045;-38
2022/03/15 06:48:55;;;;;;;148.77;58.78;;;4.00;99.90;;;;;;5071381;28;20071;-38
2022/03/15 06:51:21;;;;;;;171.90;57.95;;;4.00;99.90;;;;;;5071650;28;20048;-38
2022/03/15 06:53:47;;;;;;;179.77;59.17;;;4.10;99.90;;;;;;5071736;28;20040;-38
2022/03/15 06:56:12;;;;;;;141.35;55.25;;;4.10;99.90;;;;;;5071830;28;20131;-38
2022/03/15 06:58:38;;;;;;;145.38;56.70;;;4.20;99.90;;;;;;5072230;28;20090;-38
2022/03/15 07:01:04;;;;;;;159.50;56.67;;;4.20;99.90;;;;;;5071815;28;20032;-38
2022/03/15 07:03:30;;;;;;;149.13;58.00;;;4.00;99.90;;;;;;5071687;28;20521;-38
2022/03/15 07:05:55;;;;;;;154.95;56.55;;;4.40;99.90;;;;;;5071524;28;20599;-38
2022/03/15 07:08:21;;;;;;;145.02;56.10;;;4.40;99.90;;;;;;5071737;28;20036;-38
2022/03/15 07:10:47;;;;;;;149.45;54.47;;;4.40;99.90;;;;;;5071589;28;20543;-38
2022/03/15 07:13:12;;;;;;;145.75;54.80;;;4.50;99.90;;;;;;5071633;28;20045;-38
2022/03/15 07:15:38;;;;;;;134.27;54.97;;;5.60;99.90;;;;;;5071388;28;20122;-38
2022/03/15 07:18:04;;;;;;;149.75;57.97;;;4.60;99.90;;;;;;5071761;28;20371;-38
2022/03/15 07:20:30;;;;;;;133.75;56.25;;;4.80;99.90;;;;;;5071686;28;20134;-38
2022/03/15 07:22:55;;;;;;;131.57;55.30;;;6.10;99.90;;;;;;5071114;28;20036;-38
2022/03/15 07:25:22;;;;;;;130.43;53.28;;;4.70;99.90;;;;;;5071369;28;20401;-38
2022/03/15 07:27:48;;;;;;;138.48;55.22;;;5.00;99.90;;;;;;5070923;28;20141;-38
2022/03/15 07:30:14;;;;;;;130.48;53.55;;;5.50;99.90;;;;;;5071155;28;20445;-38
2022/03/15 07:32:40;;;;;;;145.40;56.08;;;5.10;99.90;;;;;;5070993;28;20115;-38
2022/03/15 07:35:07;;;;;;;139.07;55.10;;;6.30;99.90;;;;;;5071142;28;20040;-38
2022/03/15 07:37:33;;;;;;;139.77;53.83;;;5.30;99.90;;;;;;5070399;28;20040;-38
2022/03/15 07:39:59;;;;;;;152.00;56.85;;;5.10;99.90;;;;;;5070789;28;20037;-38
2022/03/15 07:42:25;;;;;;;139.88;57.55;;;5.40;99.90;;;;;;5070681;28;20048;-38
2022/03/15 07:44:51;;;;;;;112.82;51.63;;;5.50;99.90;;;;;;5070541;28;20708;-39
2022/03/15 07:47:16;;;;;;;118.70;51.15;;;5.50;99.90;;;;;;5070020;28;20064;-38
2022/03/15 07:49:42;;;;;;;120.78;51.97;;;5.60;99.90;;;;;;5070446;28;20045;-38
2022/03/15 07:52:09;;;;;;;131.27;51.22;;;5.60;99.90;;;;;;5070579;28;20478;-38
2022/03/15 07:54:35;;;;;;;110.20;48.55;;;6.80;99.90;;;;;;5070534;28;20036;-38
2022/03/15 07:57:01;;;;;;;112.07;48.92;;;5.80;99.90;;;;;;5070706;28;20094;-38
2022/03/15 07:59:28;;;;;;;109.82;52.53;;;5.80;99.90;;;;;;5069794;28;20055;-38
2022/03/15 08:01:53;;;;;;;121.65;50.53;;;5.70;99.90;;;;;;5069795;28;20584;-38
2022/03/15 08:04:19;;;;;;;102.05;47.65;;;5.90;99.90;;;;;;5070327;28;20052;-38
2022/03/15 08:06:45;;;;;;;103.90;48.08;;;7.10;99.90;;;;;;5070289;28;20052;-39
2022/03/15 08:09:11;;;;;;;89.63;44.22;;;6.00;99.90;;;;;;5070586;28;20037;-38
2022/03/15 08:11:37;;;;;;;100.88;48.35;;;6.10;99.90;;;;;;5070006;28;20037;-38
2022/03/15 08:14:03;;;;;;;92.43;44.55;;;6.10;99.90;;;;;;5052052;28;20391;-38
2022/03/15 08:16:29;;;;;;;93.63;46.50;;;6.10;99.90;;;;;;5070584;28;20040;-39
2022/03/15 08:18:55;;;;;;;87.63;44.10;;;6.20;99.90;;;;;;5070281;28;20036;-38
2022/03/15 08:21:22;;;;;;;84.78;43.10;;;6.30;99.90;;;;;;5070334;28;20127;-38
2022/03/15 08:23:48;;;;;;;80.90;45.03;;;6.30;99.90;;;;;;5069903;28;20071;-38
2022/03/15 08:26:15;;;;;;;76.97;41.08;;;6.30;99.90;;;;;;5069790;28;20040;-38
2022/03/15 08:28:41;;;;;;;74.75;42.17;;;7.00;99.90;;;;;;5070068;28;20402;-38
2022/03/15 08:31:07;;;;;;;80.38;42.55;;;6.30;99.90;;;;;;5070139;28;20063;-38
2022/03/15 08:33:33;;;;;;;85.57;42.47;;;6.30;99.90;;;;;;5069893;28;20455;-38
2022/03/15 08:35:59;;;;;;;75.57;39.42;;;6.80;99.90;;;;;;5069203;28;20040;-38
2022/03/15 08:38:26;;;;;;;77.60;41.45;;;6.30;99.90;;;;;;5069683;28;20047;-38
2022/03/15 08:40:52;;;;;;;81.40;41.60;;;6.30;99.90;;;;;;5069346;28;20044;-38
2022/03/15 08:43:18;;;;;;;84.20;44.25;;;6.20;99.90;;;;;;5069346;28;20051;-38
2022/03/15 08:45:44;;;;;;;80.20;42.63;;;6.30;99.90;;;;;;5069448;28;20036;-38
2022/03/15 08:48:11;;;;;;;81.10;43.90;;;6.30;99.90;;;;;;5069605;28;20246;-38
2022/03/15 08:50:37;;;;;;;71.80;41.70;;;6.40;99.90;;;;;;5069853;28;20119;-38
2022/03/15 08:53:03;;;;;;;92.53;47.20;;;6.40;99.90;;;;;;5069605;28;20040;-38
2022/03/15 08:55:29;;;;;;;80.57;44.63;;;6.70;99.90;;;;;;5069968;28;20037;-38
2022/03/15 08:57:56;;;;;;;84.57;43.28;;;6.40;99.90;;;;;;5069255;28;20055;-38
2022/03/15 09:00:21;;;;;;;76.03;41.35;;;6.50;99.90;;;;;;5069913;28;20089;-38
2022/03/15 09:02:47;;;;;;;82.82;43.75;;;7.70;99.90;;;;;;5068917;28;20040;-38
2022/03/15 09:05:14;;;;;;;80.93;41.42;;;6.50;99.90;;;;;;5068883;28;20040;-38
2022/03/15 09:07:40;;;;;;;70.38;39.70;;;6.50;99.90;;;;;;5069380;28;20385;-38
2022/03/15 09:10:07;;;;;;;71.75;40.65;;;6.50;99.90;;;;;;5069008;28;20562;-38
2022/03/15 09:12:33;;;;;;;75.60;41.45;;;6.50;99.90;;;;;;5069615;28;20113;-38
2022/03/15 09:14:58;;;;;;;75.82;40.20;;;6.40;99.90;;;;;;5069211;28;20102;-38
2022/03/15 09:17:24;;;;;;;75.35;42.25;;;7.20;99.90;;;;;;5069322;28;20044;-38
2022/03/15 09:19:52;;;;;;;72.07;39.17;;;6.60;99.90;;;;;;5069093;28;20068;-38
2022/03/15 09:22:19;;;;;;;78.63;41.08;;;6.60;99.90;;;;;;5069177;28;20040;-38
2022/03/15 09:24:45;;;;;;;76.05;41.75;;;6.60;99.90;;;;;;5069260;28;20117;-38
2022/03/15 09:27:12;;;;;;;82.88;43.78;;;6.60;99.90;;;;;;5068960;28;20044;-38
2022/03/15 09:29:39;;;;;;;65.20;39.30;;;6.70;99.90;;;;;;5068986;28;20090;-38
2022/03/15 09:32:05;;;;;;;79.13;39.70;;;6.70;99.90;;;;;;5068734;28;20509;-38
2022/03/15 09:34:30;;;;;;;84.93;41.70;;;6.80;99.90;;;;;;5069284;28;20083;-38
2022/03/15 09:36:59;;;;;;;65.78;37.38;;;6.80;99.90;;;;;;5050763;28;20131;-38
2022/03/15 09:39:25;;;;;;;71.22;39.05;;;7.50;99.90;;;;;;5069065;28;20123;-38
2022/03/15 09:41:53;;;;;;;77.53;40.83;;;6.70;99.90;;;;;;5069038;28;20130;-38
2022/03/15 09:44:19;;;;;;;70.15;39.17;;;6.70;99.90;;;;;;5068771;28;20059;-38
2022/03/15 09:46:51;;;;;;;73.13;40.30;;;7.70;99.90;;;;;;5068940;28;20124;-39
2022/03/15 09:49:21;;;;;;;69.27;37.80;;;6.80;99.90;;;;;;5068657;28;20788;-38
2022/03/15 09:51:47;;;;;;;64.03;36.58;;;6.90;99.90;;;;;;5069117;28;20586;-38
2022/03/15 09:54:14;;;;;;;70.60;39.60;;;7.00;99.90;;;;;;5068572;28;20044;-38
2022/03/15 09:56:42;;;;;;;75.68;41.17;;;6.70;99.90;;;;;;5069294;28;20069;-38
2022/03/15 09:59:18;;;;;;;81.38;40.55;;;6.60;99.90;;;;;;5069032;28;20044;-38
2022/03/15 10:01:45;;;;;;;75.65;40.95;;;6.80;99.90;;;;;;5068679;28;20518;-38
2022/03/15 10:04:11;;;;;;;83.70;42.13;;;6.80;99.90;;;;;;5068318;28;20051;-38
2022/03/15 10:06:38;;;;;;;72.00;39.97;;;7.70;99.90;;;;;;5068943;28;20040;-38
2022/03/15 10:09:08;;;;;;;69.65;39.97;;;6.90;99.90;;;;;;5068345;28;20102;-38
2022/03/15 10:11:35;;;;;;;81.20;42.47;;;6.90;99.90;;;;;;5068823;28;20043;-38
2022/03/15 10:14:01;;;;;;;79.15;43.60;;;6.90;99.90;;;;;;5068578;28;20372;-38
2022/03/15 10:16:31;;;;;;;100.18;44.88;;;8.50;99.90;;;;;;5068724;28;20044;-38
2022/03/15 10:18:58;;;;;;;84.00;46.28;;;7.60;99.90;;;;;;5067988;28;20036;-38
2022/03/15 10:21:25;;;;;;;76.80;44.63;;;7.20;99.90;;;;;;5068840;28;20048;-38
2022/03/15 10:23:55;;;;;;;83.88;46.25;;;7.60;99.90;;;;;;5071850;28;20401;-38
2022/03/15 10:26:29;;;;;;;77.10;44.38;;;7.50;99.90;;;;;;5072686;28;20056;-38
2022/03/15 10:28:56;;;;;;;101.72;48.72;;;7.60;99.90;;;;;;5072389;28;20094;-38
2022/03/15 10:31:25;;;;;;;83.45;45.05;;;7.40;99.90;;;;;;5072410;28;20510;-38
2022/03/15 10:33:54;;;;;;;70.82;40.88;;;8.90;99.90;;;;;;5072579;28;20029;-38
2022/03/15 10:36:21;;;;;;;61.45;40.33;;;8.00;99.90;;;;;;5072161;28;20332;-38
2022/03/15 10:38:52;;;;;;;68.80;42.90;;;8.20;99.90;;;;;;5072222;28;20044;-38
2022/03/15 10:41:19;;;;;;;61.38;39.05;;;8.10;99.90;;;;;;5071825;28;20102;-38
2022/03/15 10:43:53;;;;;;;66.80;41.22;;;8.50;99.90;;;;;;5072116;28;20457;-38
2022/03/15 10:46:22;;;;;;;58.35;37.78;;;8.80;99.90;;;;;;5072059;28;20115;-38
2022/03/15 10:48:53;;;;;;;57.97;37.38;;;8.60;99.90;;;;;;5071788;28;20378;-38
2022/03/15 10:51:19;;;;;;;49.67;35.42;;;8.70;99.90;;;;;;5071852;28;20044;-38
2022/03/15 10:53:47;;;;;;;53.53;35.70;;;8.70;99.90;;;;;;5071492;28;20040;-38
2022/03/15 10:56:23;;;;;;;56.63;37.30;;;8.60;99.90;;;;;;5071580;28;20046;-38
2022/03/15 10:59:09;;;;;;;53.17;36.65;;;8.80;99.90;;;;;;5071829;28;20486;-38
2022/03/15 11:01:40;;;;;;;63.67;37.72;;;9.60;99.90;;;;;;5072120;28;20040;-38
2022/03/15 11:04:07;;;;;;;47.75;32.97;;;8.90;99.90;;;;;;5071636;28;20052;-38
2022/03/15 11:06:38;;;;;;;53.63;30.75;;;8.90;99.90;;;;;;5071895;28;20043;-38
2022/03/15 11:09:15;;;;;;;44.72;32.13;;;9.30;99.90;;;;;;5071516;28;20041;-39
2022/03/15 11:11:41;;;;;;;47.95;31.98;;;8.70;99.90;;;;;;5071879;28;20036;-38
2022/03/15 11:14:08;;;;;;;46.58;31.55;;;9.10;99.90;;;;;;5071581;28;20040;-38
2022/03/15 11:16:37;;;;;;;48.97;32.03;;;9.10;99.90;;;;;;5071428;28;20487;-38
2022/03/15 11:19:05;;;;;;;48.60;32.15;;;11.00;99.90;;;;;;5071152;28;20525;-38
2022/03/15 11:21:35;;;;;;;46.33;33.10;;;9.40;99.90;;;;;;5071305;28;20055;-39
2022/03/15 11:24:02;;;;;;;50.60;35.15;;;9.60;99.90;;;;;;5071151;28;20508;-38
2022/03/15 11:26:33;;;;;;;44.80;32.08;;;9.80;99.90;;;;;;5071424;28;20041;-38
2022/03/15 11:29:02;;;;;;;42.88;30.52;;;10.70;99.90;;;;;;5071308;28;20059;-38
2022/03/15 11:31:29;;;;;;;38.13;29.60;;;10.20;99.90;;;;;;5071015;28;20140;-39
2022/03/15 11:33:58;;;;;;;40.45;26.67;;;10.40;99.90;;;;;;5069910;28;20098;-38
2022/03/15 11:36:25;;;;;;;38.97;28.02;;;10.50;99.90;;;;;;5070667;28;20086;-38
2022/03/15 11:38:52;;;;;;;34.60;24.83;;;11.20;99.90;;;;;;5070531;28;20802;-38
2022/03/15 11:41:20;;;;;;;40.40;25.95;;;10.80;99.90;;;;;;5070559;28;20072;-38
2022/03/15 11:44:22;;;;;;;37.70;22.45;;;11.00;99.90;;;;;;5070968;28;20052;-38
2022/03/15 11:47:01;;;;;;;32.85;22.77;;;11.20;99.90;;;;;;4969188;28;20421;-38
2022/03/15 11:49:43;;;;;;;35.45;21.42;;;12.30;99.90;;;;;;5059048;28;20059;-38
2022/03/15 11:52:18;;;;;;;31.08;20.55;;;11.90;99.90;;;;;;5070834;28;20032;-38
2022/03/15 11:54:57;;;;;;;30.60;21.38;;;11.70;99.90;;;;;;5070452;28;20478;-38
2022/03/15 11:57:30;;;;;;;31.73;19.42;;;11.40;99.90;;;;;;5070952;28;20071;-38
2022/03/15 11:59:57;;;;;;;25.60;19.98;;;11.50;99.90;;;;;;5070714;28;20051;-38
2022/03/15 12:02:34;;;;;;;28.55;19.33;;;12.00;99.90;;;;;;5070504;28;20040;-39
2022/03/15 12:05:11;;;;;;;32.38;20.25;;;12.30;99.90;;;;;;5070656;28;20076;-39
2022/03/15 12:07:45;;;;;;;27.27;20.63;;;12.30;99.90;;;;;;5070167;28;20053;-38
2022/03/15 12:10:11;;;;;;;31.60;21.08;;;12.00;99.90;;;;;;5069938;28;20595;-38
2022/03/15 12:12:41;;;;;;;31.73;19.77;;;12.70;99.90;;;;;;5070287;28;20830;-38
2022/03/15 12:15:15;;;;;;;26.90;19.75;;;12.80;99.90;;;;;;5070034;28;20177;-38
2022/03/15 12:17:41;;;;;;;29.38;20.83;;;12.40;99.90;;;;;;5070299;28;20127;-38
2022/03/15 12:20:16;;;;;;;27.10;18.60;;;12.80;99.90;;;;;;5070008;28;20041;-38
2022/03/15 12:22:43;;;;;;;27.63;18.77;;;12.30;99.90;;;;;;5070288;28;20040;-38
2022/03/15 12:25:14;;;;;;;25.10;18.00;;;12.30;99.90;;;;;;5069469;28;20037;-38
2022/03/15 12:27:41;;;;;;;27.98;18.38;;;12.70;99.90;;;;;;5070169;28;20040;-38
2022/03/15 12:30:08;;;;;;;27.10;17.83;;;12.80;99.90;;;;;;5070019;28;20045;-38
2022/03/15 12:32:34;;;;;;;27.75;17.88;;;12.30;99.90;;;;;;5069956;28;20059;-39